createdAt,value
2018-03-04T00:01:03.881Z,72.87
2018-03-04T00:03:30.581Z,78.80
2018-03-04T00:05:57.305Z,72.97
2018-03-04T00:08:24.153Z,78.57
2018-03-04T00:10:50.830Z,79.40
2018-03-04T00:13:17.677Z,87.30
2018-03-04T00:15:44.366Z,89.20
2018-03-04T00:18:11.086Z,81.97
2018-03-04T00:20:37.779Z,78.40
2018-03-04T00:23:04.461Z,80.63
2018-03-04T00:25:31.434Z,78.07
2018-03-04T00:27:58.244Z,80.77
2018-03-04T00:30:24.916Z,90.60
2018-03-04T00:32:51.596Z,81.23
2018-03-04T00:35:18.311Z,78.93
2018-03-04T00:37:44.988Z,75.90
2018-03-04T00:40:11.693Z,85.60
2018-03-04T00:42:38.422Z,81.73
2018-03-04T00:45:05.162Z,83.40
2018-03-04T00:47:31.865Z,76.57
2018-03-04T00:49:58.579Z,94.50
2018-03-04T00:52:25.406Z,86.67
2018-03-04T00:54:52.122Z,87.00
2018-03-04T00:57:18.822Z,94.13
2018-03-04T00:59:45.506Z,84.10
2018-03-04T01:02:12.206Z,84.67
2018-03-04T01:04:38.928Z,90.10
2018-03-04T01:07:05.614Z,94.50
2018-03-04T01:09:32.322Z,91.00
2018-03-04T01:11:59.860Z,80.38
2018-03-04T01:14:26.537Z,91.17
2018-03-04T01:16:53.256Z,90.40
2018-03-04T01:19:19.969Z,95.12
2018-03-04T01:21:46.797Z,95.63
2018-03-04T01:24:13.465Z,93.67
2018-03-04T01:26:40.204Z,87.10
2018-03-04T01:29:06.920Z,96.53
2018-03-04T01:31:33.610Z,98.10
2018-03-04T01:34:00.342Z,92.07
2018-03-04T01:36:27.088Z,86.60
2018-03-04T01:38:53.798Z,89.13
2018-03-04T01:41:20.701Z,91.83
2018-03-04T01:43:47.407Z,96.97
2018-03-04T01:46:14.144Z,86.45
2018-03-04T01:48:40.859Z,90.82
2018-03-04T01:51:07.554Z,92.30
2018-03-04T01:53:34.447Z,91.40
2018-03-04T01:56:01.362Z,82.12
2018-03-04T01:58:28.059Z,82.25
2018-03-04T02:00:54.773Z,92.00
2018-03-04T02:03:21.461Z,90.80
2018-03-04T02:05:48.137Z,91.57
2018-03-04T02:08:14.912Z,91.30
2018-03-04T02:10:41.616Z,88.73
2018-03-04T02:13:08.326Z,93.47
2018-03-04T02:15:35.076Z,91.77
2018-03-04T02:18:01.770Z,85.63
2018-03-04T02:20:28.550Z,93.10
2018-03-04T02:22:55.241Z,89.43
2018-03-04T02:25:21.916Z,97.73
2018-03-04T02:27:48.737Z,92.83
2018-03-04T02:30:15.460Z,85.40
2018-03-04T02:32:42.143Z,92.57
2018-03-04T02:35:08.928Z,85.40
2018-03-04T02:37:35.638Z,86.37
2018-03-04T02:40:02.357Z,91.33
2018-03-04T02:42:29.028Z,81.20
2018-03-04T02:44:55.709Z,83.13
2018-03-04T02:47:22.425Z,80.87
2018-03-04T02:49:49.220Z,81.33
2018-03-04T02:52:15.913Z,86.67
2018-03-04T02:54:42.590Z,83.13
2018-03-04T02:57:09.285Z,81.37
2018-03-04T02:59:35.966Z,77.80
2018-03-04T03:02:02.662Z,83.73
2018-03-04T03:04:29.357Z,77.83
2018-03-04T03:06:56.041Z,86.40
2018-03-04T03:09:22.753Z,82.80
2018-03-04T03:11:49.453Z,79.20
2018-03-04T03:14:16.171Z,82.87
2018-03-04T03:16:42.877Z,85.97
2018-03-04T03:19:09.578Z,81.83
2018-03-04T03:21:36.262Z,87.27
2018-03-04T03:24:02.970Z,76.63
2018-03-04T03:26:29.651Z,86.83
2018-03-04T03:28:56.333Z,78.47
2018-03-04T03:31:23.145Z,80.80
2018-03-04T03:33:49.856Z,80.83
2018-03-04T03:36:16.677Z,79.20
2018-03-04T03:38:43.352Z,86.30
2018-03-04T03:41:10.065Z,84.57
2018-03-04T03:43:37.446Z,85.00
2018-03-04T03:46:04.141Z,82.10
2018-03-04T03:48:30.822Z,83.80
2018-03-04T03:50:57.533Z,77.30
2018-03-04T03:53:24.209Z,81.37
2018-03-04T03:55:51.009Z,81.13
2018-03-04T03:58:17.713Z,89.80
2018-03-04T04:00:44.415Z,82.70
2018-03-04T04:03:11.109Z,80.33
2018-03-04T04:05:37.790Z,81.30
2018-03-04T04:08:04.501Z,73.70
2018-03-04T04:10:31.184Z,88.77
2018-03-04T04:12:58.141Z,78.63
2018-03-04T04:15:24.862Z,79.03
2018-03-04T04:17:51.558Z,74.10
2018-03-04T04:20:18.282Z,74.93
2018-03-04T04:22:44.972Z,80.03
2018-03-04T04:25:11.709Z,85.67
2018-03-04T04:27:38.408Z,75.67
2018-03-04T04:30:05.097Z,76.20
2018-03-04T04:32:31.798Z,72.40
2018-03-04T04:34:58.477Z,70.47
2018-03-04T04:37:25.174Z,76.07
2018-03-04T04:39:51.857Z,72.60
2018-03-04T04:42:18.686Z,73.63
2018-03-04T04:44:45.369Z,82.23
2018-03-04T04:47:12.062Z,70.73
2018-03-04T04:49:38.748Z,73.57
2018-03-04T04:52:05.426Z,70.07
2018-03-04T04:54:32.124Z,73.37
2018-03-04T04:56:59.853Z,75.70
2018-03-04T04:59:26.540Z,72.30
2018-03-04T05:01:53.216Z,70.00
2018-03-04T05:04:19.934Z,76.50
2018-03-04T05:06:46.661Z,69.37
2018-03-04T05:09:14.193Z,74.77
2018-03-04T05:11:40.910Z,72.53
2018-03-04T05:14:07.672Z,76.83
2018-03-04T05:16:35.427Z,72.23
2018-03-04T05:19:02.149Z,72.53
2018-03-04T05:21:28.853Z,67.73
2018-03-04T05:23:55.524Z,77.47
2018-03-04T05:26:22.229Z,80.03
2018-03-04T05:28:48.920Z,73.83
2018-03-04T05:31:15.641Z,75.03
2018-03-04T05:33:42.314Z,75.93
2018-03-04T05:36:09.010Z,71.50
2018-03-04T05:38:35.701Z,79.70
2018-03-04T05:41:02.585Z,63.13
2018-03-04T05:43:29.286Z,77.80
2018-03-04T05:45:55.981Z,77.83
2018-03-04T05:48:22.673Z,67.67
2018-03-04T05:50:50.365Z,71.50
2018-03-04T05:53:17.172Z,84.80
2018-03-04T05:55:43.986Z,72.47
2018-03-04T05:58:10.708Z,72.43
2018-03-04T06:00:37.409Z,71.90
2018-03-04T06:03:05.054Z,79.30
2018-03-04T06:05:32.305Z,81.10
2018-03-04T06:07:59.013Z,74.50
2018-03-04T06:10:26.242Z,74.40
2018-03-04T06:12:52.912Z,75.40
2018-03-04T06:15:19.601Z,82.60
2018-03-04T06:17:46.506Z,76.63
2018-03-04T06:20:13.202Z,75.30
2018-03-04T06:22:39.893Z,81.50
2018-03-04T06:25:06.614Z,77.17
2018-03-04T06:27:33.293Z,73.30
2018-03-04T06:29:59.965Z,76.17
2018-03-04T06:32:26.678Z,74.40
2018-03-04T06:34:53.385Z,74.30
2018-03-04T06:37:20.328Z,72.63
2018-03-04T06:39:47.009Z,76.50
2018-03-04T06:42:13.725Z,75.40
2018-03-04T06:44:40.399Z,77.57
2018-03-04T06:47:08.329Z,78.70
2018-03-04T06:49:35.035Z,74.73
2018-03-04T06:52:01.718Z,76.77
2018-03-04T06:54:29.197Z,72.47
2018-03-04T06:56:55.897Z,75.87
2018-03-04T06:59:22.602Z,78.83
2018-03-04T07:01:49.303Z,69.03
2018-03-04T07:04:16.014Z,76.87
2018-03-04T07:06:42.735Z,73.27
2018-03-04T07:09:10.113Z,74.10
2018-03-04T07:11:36.862Z,73.90
2018-03-04T07:14:03.560Z,69.97
2018-03-04T07:16:30.238Z,71.37
2018-03-04T07:18:57.130Z,74.13
2018-03-04T07:21:23.800Z,72.63
2018-03-04T07:23:50.481Z,76.10
2018-03-04T07:26:17.244Z,64.50
2018-03-04T07:28:43.942Z,63.90
2018-03-04T07:31:10.665Z,68.20
2018-03-04T07:33:37.356Z,62.50
2018-03-04T07:36:04.064Z,58.93
2018-03-04T07:38:30.797Z,67.37
2018-03-04T07:40:57.560Z,62.53
2018-03-04T07:43:24.261Z,65.90
2018-03-04T07:45:50.940Z,64.07
2018-03-04T07:48:17.666Z,64.13
2018-03-04T07:50:44.374Z,70.17
2018-03-04T07:53:11.081Z,63.83
2018-03-04T07:55:37.781Z,73.10
2018-03-04T07:58:04.477Z,64.70
2018-03-04T08:00:31.207Z,57.10
2018-03-04T08:02:57.896Z,63.33
2018-03-04T08:05:25.513Z,59.87
2018-03-04T08:07:52.257Z,57.07
2018-03-04T08:10:18.980Z,51.20
2018-03-04T08:12:45.687Z,54.70
2018-03-04T08:15:12.446Z,61.40
2018-03-04T08:17:39.168Z,49.60
2018-03-04T08:20:06.741Z,51.37
2018-03-04T08:22:33.430Z,53.77
2018-03-04T08:25:06.171Z,49.27
2018-03-04T08:27:38.663Z,47.43
2018-03-04T08:30:05.364Z,48.80
2018-03-04T08:32:32.075Z,54.43
2018-03-04T08:34:58.784Z,53.37
2018-03-04T08:37:26.369Z,47.63
2018-03-04T08:39:53.292Z,52.90
2018-03-04T08:42:19.978Z,46.23
2018-03-04T08:44:46.678Z,47.67
2018-03-04T08:47:13.384Z,45.77
2018-03-04T08:49:40.075Z,43.50
2018-03-04T08:52:06.862Z,52.53
2018-03-04T08:54:33.585Z,47.43
2018-03-04T08:57:00.318Z,49.07
2018-03-04T08:59:27.026Z,49.53
2018-03-04T09:01:53.894Z,45.90
2018-03-04T09:04:21.337Z,41.70
2018-03-04T09:06:48.004Z,44.10
2018-03-04T09:09:14.733Z,47.40
2018-03-04T09:11:41.429Z,41.27
2018-03-04T09:14:08.144Z,45.17
2018-03-04T09:16:34.852Z,46.13
2018-03-04T09:19:01.602Z,44.10
2018-03-04T09:21:28.392Z,46.03
2018-03-04T09:23:55.315Z,44.47
2018-03-04T09:26:22.005Z,44.17
2018-03-04T09:28:48.736Z,42.47
2018-03-04T09:31:15.432Z,44.33
2018-03-04T09:33:42.109Z,48.37
2018-03-04T09:36:08.873Z,45.97
2018-03-04T09:38:35.773Z,41.97
2018-03-04T09:41:02.514Z,44.67
2018-03-04T09:43:29.189Z,43.10
2018-03-04T09:45:55.912Z,47.43
2018-03-04T09:48:22.604Z,39.93
2018-03-04T09:50:49.481Z,46.10
2018-03-04T09:53:16.411Z,38.10
2018-03-04T09:55:43.121Z,41.10
2018-03-04T09:58:09.896Z,40.10
2018-03-04T10:00:36.566Z,42.47
2018-03-04T10:03:03.282Z,39.83
2018-03-04T10:05:29.978Z,37.90
2018-03-04T10:07:56.706Z,41.67
2018-03-04T10:10:23.427Z,39.50
2018-03-04T10:12:50.193Z,44.20
2018-03-04T10:15:16.891Z,44.63
2018-03-04T10:17:43.599Z,40.13
2018-03-04T10:20:10.329Z,39.60
2018-03-04T10:22:37.094Z,37.80
2018-03-04T10:25:03.866Z,41.00
2018-03-04T10:27:30.596Z,37.60
2018-03-04T10:29:57.301Z,38.40
2018-03-04T10:32:24.093Z,39.47
2018-03-04T10:34:50.790Z,37.50
2018-03-04T10:37:17.509Z,36.97
2018-03-04T10:39:44.527Z,36.27
2018-03-04T10:42:11.226Z,38.83
2018-03-04T10:44:39.524Z,31.07
2018-03-04T10:47:06.227Z,39.07
2018-03-04T10:49:32.933Z,40.13
2018-03-04T10:51:59.637Z,38.67
2018-03-04T10:54:26.566Z,36.47
2018-03-04T10:56:53.236Z,36.20
2018-03-04T10:59:19.935Z,39.63
2018-03-04T11:01:51.426Z,34.57
2018-03-04T11:04:18.138Z,33.63
2018-03-04T11:06:44.852Z,31.53
2018-03-04T11:09:11.545Z,37.17
2018-03-04T11:11:38.265Z,35.90
2018-03-04T11:14:05.070Z,34.90
2018-03-04T11:16:31.821Z,36.67
2018-03-04T11:18:58.514Z,37.70
2018-03-04T11:21:25.326Z,35.33
2018-03-04T11:23:52.037Z,39.43
2018-03-04T11:26:18.755Z,35.20
2018-03-04T11:28:45.542Z,32.87
2018-03-04T11:31:12.156Z,39.40
2018-03-04T11:33:38.871Z,37.97
2018-03-04T11:36:05.597Z,36.10
2018-03-04T11:38:32.289Z,30.47
2018-03-04T11:40:59.016Z,42.20
2018-03-04T11:43:25.706Z,37.47
2018-03-04T11:45:52.444Z,38.83
2018-03-04T11:48:19.161Z,36.93
2018-03-04T11:50:45.848Z,32.97
2018-03-04T11:53:12.668Z,37.93
2018-03-04T11:55:39.598Z,32.00
2018-03-04T11:58:06.255Z,33.20
2018-03-04T12:00:33.140Z,30.20
2018-03-04T12:02:59.844Z,31.90
2018-03-04T12:05:26.533Z,30.13
2018-03-04T12:07:53.232Z,35.10
2018-03-04T12:10:19.936Z,27.63
2018-03-04T12:12:46.657Z,27.87
2018-03-04T12:15:13.424Z,28.50
2018-03-04T12:17:40.110Z,32.03
2018-03-04T12:20:06.792Z,27.03
2018-03-04T12:22:33.526Z,28.33
2018-03-04T12:25:00.268Z,28.87
2018-03-04T12:27:27.063Z,27.77
2018-03-04T12:29:53.787Z,33.50
2018-03-04T12:32:20.479Z,26.17
2018-03-04T12:34:47.858Z,30.10
2018-03-04T12:37:14.569Z,30.93
2018-03-04T12:39:41.255Z,26.03
2018-03-04T12:42:07.983Z,30.47
2018-03-04T12:44:34.713Z,26.83
2018-03-04T12:47:01.449Z,29.83
2018-03-04T12:49:28.136Z,28.53
2018-03-04T12:51:54.857Z,26.13
2018-03-04T12:54:21.686Z,25.70
2018-03-04T12:56:48.365Z,27.97
2018-03-04T12:59:15.113Z,27.77
2018-03-04T13:01:41.813Z,32.97
2018-03-04T13:04:08.538Z,31.30
2018-03-04T13:06:35.215Z,30.27
2018-03-04T13:09:01.966Z,25.77
2018-03-04T13:11:28.653Z,28.00
2018-03-04T13:13:55.486Z,29.90
2018-03-04T13:16:22.203Z,27.20
2018-03-04T13:18:48.928Z,28.83
2018-03-04T13:21:15.634Z,29.27
2018-03-04T13:23:42.350Z,24.17
2018-03-04T13:26:09.063Z,26.67
2018-03-04T13:28:35.868Z,24.37
2018-03-04T13:31:02.573Z,22.80
2018-03-04T13:33:29.261Z,28.70
2018-03-04T13:35:55.963Z,28.30
2018-03-04T13:38:22.686Z,26.33
2018-03-04T13:40:49.561Z,22.23
2018-03-04T13:43:16.266Z,26.30
2018-03-04T13:45:42.999Z,26.90
2018-03-04T13:48:09.710Z,28.33
2018-03-04T13:50:36.405Z,21.93
2018-03-04T13:53:03.141Z,22.23
2018-03-04T13:55:30.408Z,25.90
2018-03-04T13:57:57.160Z,24.43
2018-03-04T14:00:23.853Z,25.27
2018-03-04T14:02:50.557Z,18.53
2018-03-04T14:05:17.265Z,19.87
2018-03-04T14:07:44.020Z,17.47
2018-03-04T14:10:10.849Z,23.27
2018-03-04T14:12:37.558Z,21.77
2018-03-04T14:15:04.256Z,20.87
2018-03-04T14:17:30.923Z,22.53
2018-03-04T14:19:57.683Z,21.37
2018-03-04T14:22:24.385Z,22.60
2018-03-04T14:24:51.069Z,20.47
2018-03-04T14:27:17.857Z,21.87
2018-03-04T14:29:44.780Z,24.13
2018-03-04T14:32:11.490Z,21.83
2018-03-04T14:34:38.192Z,20.93
2018-03-04T14:37:04.897Z,21.47
2018-03-04T14:39:31.585Z,19.40
2018-03-04T14:41:58.318Z,23.77
2018-03-04T14:44:25.046Z,19.97
2018-03-04T14:46:51.718Z,21.70
2018-03-04T14:49:18.480Z,22.20
2018-03-04T14:51:45.169Z,20.97
2018-03-04T14:54:11.920Z,21.10
2018-03-04T14:56:38.630Z,18.70
2018-03-04T14:59:05.346Z,20.17
2018-03-04T15:01:32.053Z,20.23
2018-03-04T15:03:58.761Z,20.43
2018-03-04T15:06:25.478Z,18.20
2018-03-04T15:08:52.355Z,19.17
2018-03-04T15:11:19.111Z,19.53
2018-03-04T15:13:45.825Z,22.53
2018-03-04T15:16:12.501Z,18.60
2018-03-04T15:18:39.202Z,16.50
2018-03-04T15:21:05.917Z,20.87
2018-03-04T15:23:32.646Z,16.07
2018-03-04T15:25:59.442Z,14.37
2018-03-04T15:28:26.317Z,16.07
2018-03-04T15:30:53.010Z,16.60
2018-03-04T15:33:19.714Z,16.80
2018-03-04T15:35:46.493Z,17.57
2018-03-04T15:38:13.211Z,15.70
2018-03-04T15:40:40.010Z,14.80
2018-03-04T15:43:06.705Z,17.43
2018-03-04T15:45:33.409Z,14.30
2018-03-04T15:48:00.101Z,13.13
2018-03-04T15:50:26.927Z,12.80
2018-03-04T15:52:53.675Z,11.30
2018-03-04T15:55:20.428Z,13.60
2018-03-04T15:57:47.789Z,11.33
2018-03-04T16:00:14.516Z,12.63
2018-03-04T16:02:41.225Z,10.70
2018-03-04T16:05:07.989Z,12.57
2018-03-04T16:07:34.709Z,10.80
2018-03-04T16:10:01.436Z,12.13
2018-03-04T16:12:28.129Z,13.00
2018-03-04T16:14:54.804Z,11.47
2018-03-04T16:17:21.521Z,10.40
2018-03-04T16:19:48.329Z,12.97
2018-03-04T16:22:15.088Z,15.13
2018-03-04T16:24:41.989Z,14.73
2018-03-04T16:27:08.703Z,11.47
2018-03-04T16:29:35.403Z,11.77
2018-03-04T16:32:02.117Z,12.93
2018-03-04T16:34:28.824Z,12.80
2018-03-04T16:36:55.552Z,12.50
2018-03-04T16:39:22.327Z,11.53
2018-03-04T16:41:49.085Z,11.27
2018-03-04T16:44:15.767Z,10.80
2018-03-04T16:46:42.471Z,11.50
2018-03-04T16:49:09.171Z,10.43
2018-03-04T16:51:35.921Z,9.30
2018-03-04T16:54:02.635Z,13.80
2018-03-04T16:56:29.346Z,11.93
2018-03-04T16:58:56.072Z,14.93
2018-03-04T17:01:22.774Z,11.43
2018-03-04T17:03:49.489Z,10.37
2018-03-04T17:06:17.410Z,12.00
2018-03-04T17:08:44.133Z,11.93
2018-03-04T17:11:10.936Z,11.53
2018-03-04T17:13:37.645Z,12.07
2018-03-04T17:16:05.957Z,11.80
2018-03-04T17:18:32.677Z,13.83
2018-03-04T17:21:00.302Z,13.50
2018-03-04T17:23:27.037Z,15.53
2018-03-04T17:25:53.804Z,12.83
2018-03-04T17:28:20.517Z,11.27
2018-03-04T17:30:47.844Z,14.50
2018-03-04T17:33:14.574Z,15.17
2018-03-04T17:35:42.198Z,15.30
2018-03-04T17:38:08.983Z,15.87
2018-03-04T17:40:35.689Z,15.50
2018-03-04T17:43:02.421Z,17.10
2018-03-04T17:45:29.854Z,17.80
2018-03-04T17:47:56.558Z,22.63
2018-03-04T17:50:23.252Z,19.10
2018-03-04T17:52:50.106Z,21.33
2018-03-04T17:55:17.605Z,22.90
2018-03-04T17:57:44.364Z,19.40
2018-03-04T18:00:11.575Z,21.50
2018-03-04T18:02:38.278Z,20.67
2018-03-04T18:05:04.982Z,21.10
2018-03-04T18:07:31.689Z,19.20
2018-03-04T18:09:58.408Z,18.07
2018-03-04T18:12:25.186Z,17.50
2018-03-04T18:14:51.873Z,20.93
2018-03-04T18:17:19.620Z,13.27
2018-03-04T18:19:46.310Z,16.10
2018-03-04T18:22:13.170Z,13.07
2018-03-04T18:24:39.908Z,16.07
2018-03-04T18:27:07.251Z,14.70
2018-03-04T18:29:34.583Z,15.50
2018-03-04T18:32:01.273Z,17.20
2018-03-04T18:34:27.987Z,12.47
2018-03-04T18:36:55.117Z,17.33
2018-03-04T18:39:23.084Z,14.97
2018-03-04T18:41:51.487Z,16.83
2018-03-04T18:44:18.207Z,15.97
2018-03-04T18:46:45.730Z,16.77
2018-03-04T18:49:12.435Z,14.50
2018-03-04T18:51:39.259Z,18.47
2018-03-04T18:54:05.989Z,16.60
2018-03-04T18:56:32.687Z,17.47
2018-03-04T18:58:59.390Z,18.60
2018-03-04T19:01:26.090Z,16.37
2018-03-04T19:03:52.810Z,14.67
2018-03-04T19:06:19.525Z,18.13
2018-03-04T19:08:46.387Z,24.03
2018-03-04T19:11:13.265Z,19.17
2018-03-04T19:13:40.161Z,25.60
2018-03-04T19:16:07.856Z,25.00
2018-03-04T19:18:35.201Z,26.23
2018-03-04T19:21:01.948Z,26.50
2018-03-04T19:23:28.755Z,27.10
2018-03-04T19:25:55.502Z,29.87
2018-03-04T19:28:22.861Z,34.80
2018-03-04T19:30:49.719Z,34.97
2018-03-04T19:33:16.414Z,42.13
2018-03-04T19:35:43.139Z,34.97
2018-03-04T19:38:09.894Z,34.77
2018-03-04T19:40:36.570Z,40.30
2018-03-04T19:43:03.305Z,35.20
2018-03-04T19:45:30.004Z,39.07
2018-03-04T19:47:56.684Z,39.17
2018-03-04T19:50:23.393Z,42.30
2018-03-04T19:52:50.254Z,45.97
2018-03-04T19:55:16.967Z,46.97
2018-03-04T19:57:43.666Z,44.63
2018-03-04T20:00:10.404Z,43.93
2018-03-04T20:02:37.116Z,39.73
2018-03-04T20:05:03.834Z,45.47
2018-03-04T20:07:30.558Z,47.40
2018-03-04T20:09:57.255Z,45.60
2018-03-04T20:12:24.117Z,41.13
2018-03-04T20:14:50.801Z,44.40
2018-03-04T20:17:17.517Z,47.50
2018-03-04T20:19:44.219Z,50.83
2018-03-04T20:22:10.920Z,48.07
2018-03-04T20:24:37.741Z,46.17
2018-03-04T20:27:04.449Z,47.60
2018-03-04T20:29:31.126Z,42.23
2018-03-04T20:31:58.025Z,42.33
2018-03-04T20:34:24.766Z,49.47
2018-03-04T20:36:51.495Z,47.77
2018-03-04T20:39:18.260Z,44.47
2018-03-04T20:41:44.957Z,50.73
2018-03-04T20:44:11.664Z,53.17
2018-03-04T20:46:38.667Z,41.77
2018-03-04T20:49:05.419Z,40.87
2018-03-04T20:51:32.115Z,46.57
2018-03-04T20:53:58.845Z,50.83
2018-03-04T20:56:25.702Z,46.13
2018-03-04T20:58:52.434Z,49.10
2018-03-04T21:01:19.176Z,52.60
2018-03-04T21:03:45.928Z,55.20
2018-03-04T21:06:12.650Z,54.57
2018-03-04T21:08:39.351Z,49.90
2018-03-04T21:11:06.068Z,51.53
2018-03-04T21:13:32.770Z,43.97
2018-03-04T21:15:59.486Z,48.37
2018-03-04T21:18:26.235Z,49.70
2018-03-04T21:20:52.934Z,52.50
2018-03-04T21:23:19.671Z,48.20
2018-03-04T21:25:46.373Z,53.03
2018-03-04T21:28:13.074Z,54.70
2018-03-04T21:30:39.797Z,48.07
2018-03-04T21:33:06.644Z,53.17
2018-03-04T21:35:33.476Z,51.67
2018-03-04T21:38:00.178Z,46.93
2018-03-04T21:40:26.895Z,49.00
2018-03-04T21:42:53.632Z,49.97
2018-03-04T21:45:20.327Z,46.40
2018-03-04T21:47:47.052Z,54.17
2018-03-04T21:50:13.872Z,51.90
2018-03-04T21:52:40.566Z,55.33
2018-03-04T21:55:07.484Z,45.10
2018-03-04T21:57:34.210Z,48.03
2018-03-04T22:00:00.918Z,49.40
2018-03-04T22:02:27.677Z,53.07
2018-03-04T22:04:54.429Z,40.70
2018-03-04T22:07:21.129Z,45.87
2018-03-04T22:09:47.838Z,42.83
2018-03-04T22:12:14.569Z,39.90
2018-03-04T22:14:41.273Z,43.27
2018-03-04T22:17:08.008Z,40.70
2018-03-04T22:19:34.701Z,46.10
2018-03-04T22:22:01.384Z,42.30
2018-03-04T22:24:28.071Z,47.20
2018-03-04T22:26:54.947Z,43.17
2018-03-04T22:29:21.784Z,48.10
2018-03-04T22:31:48.498Z,48.50
2018-03-04T22:34:15.189Z,45.53
2018-03-04T22:36:41.915Z,43.50
2018-03-04T22:39:08.632Z,48.23
2018-03-04T22:41:35.343Z,44.07
2018-03-04T22:44:02.137Z,33.00
2018-03-04T22:46:28.858Z,30.57
2018-03-04T22:48:55.620Z,23.57
2018-03-04T22:51:22.288Z,21.87
2018-03-04T22:53:49.006Z,20.03
2018-03-04T22:56:15.706Z,18.60
2018-03-04T22:58:42.418Z,15.13
2018-03-04T23:01:09.201Z,15.70
2018-03-04T23:03:35.910Z,12.93
2018-03-04T23:06:02.678Z,9.67
2018-03-04T23:08:29.415Z,9.10
2018-03-04T23:10:56.102Z,7.00
2018-03-04T23:13:22.798Z,7.70
2018-03-04T23:15:49.495Z,8.47
2018-03-04T23:18:16.184Z,9.00
2018-03-04T23:20:42.881Z,9.17
2018-03-04T23:23:09.571Z,7.87
2018-03-04T23:25:36.256Z,7.97
2018-03-04T23:28:02.941Z,7.27
2018-03-04T23:30:29.642Z,7.00
2018-03-04T23:32:56.334Z,7.83
2018-03-04T23:35:23.133Z,7.80
2018-03-04T23:37:49.817Z,7.07
2018-03-04T23:40:16.553Z,7.20
2018-03-04T23:42:43.225Z,7.00
2018-03-04T23:45:10.051Z,6.17
2018-03-04T23:47:36.723Z,6.90
2018-03-04T23:52:26.626Z,7.20
2018-03-04T23:54:53.385Z,6.43
2018-03-04T23:57:20.065Z,6.10
2018-03-04T23:59:46.757Z,6.80
